KCEY/CEY METAR and TAF weather

Enter ICAO airport designator
Station Type Date Time Source
KCEY METAR 2019/06/26 16:35 UTC NOAA

KCEY 261635Z AUTO 21003KT 10SM SCT035 30/22 A3015 RMK AO1


Station Type Date Time Source
KCEY Decoded METAR 2019/06/26 16:35 UTC NOAA

Station name not available
Jun 26, 2019 - 12:35 PM EDT / 2019.06.26 1635 UTC
Wind: from the SSW (210 degrees) at 3 MPH (3 KT):0
Visibility: 10 mile(s):0
Sky conditions: partly cloudy
Temperature: 86 F (30 C)
Heat index: 91.8 F (33.2 C):1
Dew Point: 71 F (22 C)
Relative Humidity: 62%
Pressure (altimeter): 30.15 in. Hg (1020 hPa)
ob: KCEY 261635Z AUTO 21003KT 10SM SCT035 30/22 A3015 RMK AO1
cycle: 16

Station Type Date Time Source
KCEY TAF UTC NOAA

Error!

Example: see airport list